createdAt,value
2022-10-19T00:01:31.104Z,100.00
2022-10-19T00:04:03.509Z,98.11
2022-10-19T00:06:37.816Z,97.53
2022-10-19T00:09:09.873Z,100.00
2022-10-19T00:11:42.430Z,100.00
2022-10-19T00:14:16.909Z,100.00
2022-10-19T00:16:48.110Z,100.00
2022-10-19T00:19:21.485Z,98.10
2022-10-19T00:24:24.536Z,100.00
2022-10-19T00:26:53.293Z,100.00
2022-10-19T00:29:21.865Z,95.24
2022-10-19T00:31:50.898Z,99.71
2022-10-19T00:34:20.774Z,100.00
2022-10-19T00:36:49.600Z,100.00
2022-10-19T00:39:19.859Z,96.15
2022-10-19T00:41:49.561Z,99.07
2022-10-19T00:45:07.626Z,100.00
2022-10-19T00:47:36.449Z,100.00
2022-10-19T00:50:08.239Z,100.00
2022-10-19T00:52:37.168Z,100.00
2022-10-19T00:55:08.193Z,100.00
2022-10-19T00:57:37.898Z,100.00
2022-10-19T01:00:09.817Z,100.00
2022-10-19T01:02:38.812Z,100.00
2022-10-19T01:05:10.517Z,100.00
2022-10-19T01:07:39.294Z,100.00
2022-10-19T01:10:09.683Z,100.00
2022-10-19T01:12:56.759Z,100.00
2022-10-19T01:15:39.171Z,100.00
2022-10-19T01:18:21.957Z,100.00
2022-10-19T01:21:23.993Z,100.00
2022-10-19T01:24:40.579Z,100.00
2022-10-19T01:27:44.064Z,100.00
2022-10-19T01:30:30.186Z,97.92
2022-10-19T01:33:23.081Z,100.00
2022-10-19T01:36:07.195Z,100.00
2022-10-19T01:38:45.105Z,100.00
2022-10-19T01:41:22.113Z,100.00
2022-10-19T01:44:01.399Z,100.00
2022-10-19T01:46:39.235Z,100.00
2022-10-19T01:49:15.764Z,100.00
2022-10-19T01:51:51.141Z,100.00
2022-10-19T01:54:23.791Z,100.00
2022-10-19T01:56:57.331Z,100.00
2022-10-19T01:59:28.189Z,99.15
2022-10-19T02:01:59.852Z,98.31
2022-10-19T02:04:28.901Z,100.00
2022-10-19T02:06:59.157Z,100.00
2022-10-19T02:09:27.887Z,98.84
2022-10-19T02:12:03.614Z,100.00
2022-10-19T02:14:41.105Z,100.00
2022-10-19T02:17:15.941Z,99.88
2022-10-19T02:19:44.992Z,97.47
2022-10-19T02:22:14.527Z,96.52
2022-10-19T02:24:43.264Z,95.92
2022-10-19T02:27:12.199Z,99.47
2022-10-19T02:29:41.709Z,100.00
2022-10-19T02:32:13.692Z,97.14
2022-10-19T02:34:43.045Z,97.28
2022-10-19T02:37:12.027Z,98.46
2022-10-19T02:39:41.379Z,98.50
2022-10-19T02:42:17.701Z,99.95
2022-10-19T02:44:54.215Z,95.17
2022-10-19T02:47:32.741Z,99.41
2022-10-19T02:50:05.223Z,97.35
2022-10-19T02:52:33.998Z,98.48
2022-10-19T02:55:02.499Z,99.15
2022-10-19T02:57:32.699Z,97.76
2022-10-19T03:00:01.781Z,98.46
2022-10-19T03:02:31.855Z,100.00
2022-10-19T03:05:00.476Z,97.75
2022-10-19T03:07:29.184Z,100.00
2022-10-19T03:09:57.814Z,99.98
2022-10-19T03:12:26.689Z,100.00
2022-10-19T03:14:55.226Z,100.00
2022-10-19T03:17:24.048Z,100.00
2022-10-19T03:19:54.181Z,100.00
2022-10-19T03:22:22.916Z,100.00
2022-10-19T03:24:51.575Z,100.00
2022-10-19T03:27:20.295Z,100.00
2022-10-19T03:29:48.798Z,100.00
2022-10-19T03:32:17.606Z,100.00
2022-10-19T03:34:46.087Z,97.22
2022-10-19T03:37:16.178Z,95.45
2022-10-19T03:39:44.769Z,95.93
2022-10-19T03:42:13.479Z,99.23
2022-10-19T03:44:41.963Z,100.00
2022-10-19T03:47:10.782Z,96.82
2022-10-19T03:49:40.351Z,99.57
2022-10-19T03:52:10.209Z,98.18
2022-10-19T03:54:40.363Z,95.50
2022-10-19T03:57:09.033Z,96.43
2022-10-19T03:59:37.608Z,95.45
2022-10-19T04:02:06.318Z,94.66
2022-10-19T04:04:34.908Z,95.58
2022-10-19T04:07:03.598Z,95.83
2022-10-19T04:09:32.093Z,98.25
2022-10-19T04:12:02.143Z,97.87
2022-10-19T04:14:33.161Z,94.35
2022-10-19T04:17:07.902Z,93.64
2022-10-19T04:19:36.443Z,95.66
2022-10-19T04:22:05.296Z,93.69
2022-10-19T04:24:33.805Z,95.52
2022-10-19T04:27:03.994Z,94.84
2022-10-19T04:29:32.488Z,95.20
2022-10-19T04:32:01.233Z,98.01
2022-10-19T04:34:29.719Z,92.54
2022-10-19T04:36:59.533Z,89.63
2022-10-19T04:39:28.323Z,91.77
2022-10-19T04:41:57.136Z,96.78
2022-10-19T04:44:27.076Z,88.97
2022-10-19T04:46:55.793Z,91.55
2022-10-19T04:49:24.288Z,92.31
2022-10-19T04:51:52.996Z,96.36
2022-10-19T04:54:21.577Z,90.33
2022-10-19T04:56:50.324Z,95.49
2022-10-19T04:59:18.784Z,96.45
2022-10-19T05:01:48.846Z,99.01
2022-10-19T05:04:17.373Z,95.00
2022-10-19T05:06:46.161Z,90.66
2022-10-19T05:09:14.838Z,92.21
2022-10-19T05:11:43.530Z,90.67
2022-10-19T05:14:12.000Z,90.37
2022-10-19T05:16:40.720Z,90.54
2022-10-19T05:19:15.132Z,89.68
2022-10-19T05:21:43.934Z,86.67
2022-10-19T05:24:14.340Z,94.88
2022-10-19T05:26:43.124Z,92.31
2022-10-19T05:29:14.739Z,91.23
2022-10-19T05:31:43.824Z,88.04
2022-10-19T05:34:14.034Z,90.27
2022-10-19T05:36:42.718Z,89.35
2022-10-19T05:39:15.664Z,87.42
2022-10-19T05:41:46.060Z,89.79
2022-10-19T05:44:17.849Z,92.04
2022-10-19T05:46:46.920Z,91.43
2022-10-19T05:49:19.514Z,85.33
2022-10-19T05:51:49.319Z,85.01
2022-10-19T05:54:17.939Z,84.61
2022-10-19T05:56:47.116Z,85.34
2022-10-19T05:59:19.495Z,85.40
2022-10-19T06:01:49.162Z,86.29
2022-10-19T06:04:19.338Z,87.89
2022-10-19T06:06:48.069Z,87.99
2022-10-19T06:09:16.559Z,86.40
2022-10-19T06:11:45.300Z,89.43
2022-10-19T06:14:16.396Z,89.95
2022-10-19T06:16:46.836Z,87.53
2022-10-19T06:19:15.345Z,87.26
2022-10-19T06:21:46.699Z,85.62
2022-10-19T06:24:15.657Z,91.19
2022-10-19T06:26:44.406Z,89.07
2022-10-19T06:29:13.221Z,86.92
2022-10-19T06:31:42.102Z,86.90
2022-10-19T06:34:10.749Z,91.55
2022-10-19T06:36:39.539Z,91.77
2022-10-19T06:39:09.391Z,91.61
2022-10-19T06:41:38.196Z,88.48
2022-10-19T06:44:21.731Z,93.31
2022-10-19T06:46:50.449Z,93.08
2022-10-19T06:49:19.013Z,88.66
2022-10-19T06:51:47.734Z,92.96
2022-10-19T06:54:17.611Z,92.61
2022-10-19T06:56:46.344Z,92.04
2022-10-19T06:59:15.150Z,89.85
2022-10-19T07:01:43.880Z,90.80
2022-10-19T07:04:12.603Z,88.89
2022-10-19T07:06:41.657Z,89.29
2022-10-19T07:09:10.231Z,89.95
2022-10-19T07:11:44.869Z,86.85
2022-10-19T07:14:14.811Z,86.70
2022-10-19T07:16:43.525Z,86.89
2022-10-19T07:19:13.519Z,90.54
2022-10-19T07:21:43.829Z,85.90
2022-10-19T07:24:13.003Z,84.59
2022-10-19T07:26:43.070Z,84.26
2022-10-19T07:29:12.117Z,83.32
2022-10-19T07:31:41.549Z,84.35
2022-10-19T07:34:14.427Z,83.15
2022-10-19T07:36:48.149Z,82.50
2022-10-19T07:39:18.145Z,83.96
2022-10-19T07:41:48.890Z,83.64
2022-10-19T07:44:17.684Z,84.43
2022-10-19T07:46:46.412Z,86.54
2022-10-19T07:49:19.020Z,84.50
2022-10-19T07:51:48.418Z,85.27
2022-10-19T07:54:16.954Z,82.34
2022-10-19T07:56:46.993Z,82.71
2022-10-19T07:59:17.377Z,86.55
2022-10-19T08:01:47.607Z,83.01
2022-10-19T08:07:06.595Z,81.61
2022-10-19T08:12:25.258Z,80.74
2022-10-19T08:14:55.022Z,82.46
2022-10-19T08:17:23.769Z,83.13
2022-10-19T08:19:52.330Z,85.16
2022-10-19T08:22:21.039Z,87.54
2022-10-19T08:24:50.358Z,86.87
2022-10-19T08:27:19.087Z,87.37
2022-10-19T08:29:49.002Z,89.05
2022-10-19T08:32:17.749Z,89.11
2022-10-19T08:34:46.420Z,91.57
2022-10-19T08:37:26.073Z,92.28
2022-10-19T08:40:03.920Z,93.88
2022-10-19T08:42:47.850Z,91.72
2022-10-19T08:48:28.459Z,92.51
2022-10-19T08:50:59.635Z,90.25
2022-10-19T08:53:51.492Z,90.09
2022-10-19T08:56:50.998Z,90.92
2022-10-19T08:59:37.443Z,91.24
2022-10-19T09:02:17.633Z,91.46
2022-10-19T09:04:57.049Z,87.46
2022-10-19T09:07:29.867Z,91.47
2022-10-19T09:10:05.493Z,91.48
2022-10-19T09:12:44.460Z,89.64
2022-10-19T09:15:18.930Z,86.80
2022-10-19T09:17:48.831Z,90.04
2022-10-19T09:20:21.648Z,86.85
2022-10-19T09:23:05.920Z,88.02
2022-10-19T09:25:40.275Z,86.52
2022-10-19T09:28:38.922Z,86.86
2022-10-19T09:31:18.954Z,85.38
2022-10-19T09:33:56.400Z,84.90
2022-10-19T09:36:50.200Z,85.01
2022-10-19T09:39:20.885Z,89.75
2022-10-19T09:41:55.865Z,92.23
2022-10-19T09:44:26.263Z,93.94
2022-10-19T09:47:09.098Z,92.78
2022-10-19T09:49:46.251Z,96.14
2022-10-19T09:52:34.460Z,93.60
2022-10-19T09:55:06.942Z,92.02
2022-10-19T09:57:43.655Z,90.46
2022-10-19T10:00:20.345Z,92.42
2022-10-19T10:02:54.845Z,89.53
2022-10-19T10:05:34.286Z,89.99
2022-10-19T10:08:04.468Z,92.24
2022-10-19T10:10:39.983Z,91.72
2022-10-19T10:13:17.263Z,92.76
2022-10-19T10:15:51.139Z,95.88
2022-10-19T10:18:20.593Z,98.95
2022-10-19T10:21:06.830Z,91.50
2022-10-19T10:23:37.747Z,94.08
2022-10-19T10:26:18.120Z,94.25
2022-10-19T10:28:51.778Z,93.32
2022-10-19T10:31:26.057Z,93.44
2022-10-19T10:34:10.792Z,93.83
2022-10-19T10:36:55.092Z,93.19
2022-10-19T10:39:27.102Z,94.09
2022-10-19T10:41:58.375Z,96.19
2022-10-19T10:44:30.915Z,97.34
2022-10-19T10:47:02.768Z,97.90
2022-10-19T10:49:36.680Z,100.00
2022-10-19T10:52:13.284Z,100.00
2022-10-19T10:54:57.893Z,96.48
2022-10-19T10:57:31.212Z,88.01
2022-10-19T11:00:11.243Z,96.44
2022-10-19T11:02:49.087Z,99.21
2022-10-19T11:05:25.216Z,95.69
2022-10-19T11:08:02.558Z,98.34
2022-10-19T11:10:36.392Z,100.00
2022-10-19T11:13:17.504Z,100.00
2022-10-19T11:15:55.054Z,100.00
2022-10-19T11:18:31.437Z,100.00
2022-10-19T11:21:10.632Z,99.53
2022-10-19T11:24:03.116Z,94.95
2022-10-19T11:27:01.168Z,93.20
2022-10-19T11:29:50.901Z,94.55
2022-10-19T11:32:32.328Z,89.61
2022-10-19T11:35:26.676Z,95.16
2022-10-19T11:38:20.259Z,86.26
2022-10-19T11:41:17.244Z,83.63
2022-10-19T11:44:07.182Z,87.09
2022-10-19T11:46:49.541Z,83.63
2022-10-19T11:49:36.116Z,87.98
2022-10-19T11:52:14.947Z,83.07
2022-10-19T11:55:02.966Z,79.92
2022-10-19T11:57:42.994Z,78.63
2022-10-19T12:00:37.727Z,78.15
2022-10-19T12:03:34.780Z,75.94
2022-10-19T12:06:16.086Z,80.13
2022-10-19T12:09:13.010Z,78.27
2022-10-19T12:12:01.508Z,75.63
2022-10-19T12:14:36.816Z,73.43
2022-10-19T12:19:54.921Z,70.05
2022-10-19T12:22:28.766Z,70.31
2022-10-19T12:25:01.829Z,69.98
2022-10-19T12:27:35.435Z,70.68
2022-10-19T12:30:14.598Z,72.63
2022-10-19T12:33:00.424Z,68.29
2022-10-19T12:35:59.469Z,67.87
2022-10-19T12:38:45.141Z,65.71
2022-10-19T12:41:27.381Z,66.58
2022-10-19T12:44:29.451Z,65.44
2022-10-19T12:47:09.488Z,64.00
2022-10-19T12:49:50.726Z,64.86
2022-10-19T12:52:40.231Z,66.26
2022-10-19T12:55:26.261Z,69.63
2022-10-19T12:58:06.208Z,64.89
2022-10-19T13:00:38.636Z,62.56
2022-10-19T13:03:25.071Z,66.70
2022-10-19T13:06:01.808Z,64.68
2022-10-19T13:08:38.556Z,63.33
2022-10-19T13:11:14.625Z,61.36
2022-10-19T13:14:01.661Z,59.58
2022-10-19T13:17:02.489Z,58.90
2022-10-19T13:19:32.490Z,58.23
2022-10-19T13:22:28.651Z,58.77
2022-10-19T13:25:28.375Z,57.36
2022-10-19T13:28:37.753Z,59.30
2022-10-19T13:31:26.065Z,57.66
2022-10-19T13:33:57.025Z,55.13
2022-10-19T13:36:28.216Z,57.49
2022-10-19T13:39:13.355Z,55.11
2022-10-19T13:42:03.257Z,55.87
2022-10-19T13:44:36.662Z,56.86
2022-10-19T13:47:31.357Z,53.07
2022-10-19T13:50:41.218Z,53.65
2022-10-19T13:53:34.155Z,55.34
2022-10-19T13:56:27.960Z,56.05
2022-10-19T13:59:50.163Z,55.84
2022-10-19T14:02:56.305Z,55.78
2022-10-19T14:06:11.523Z,57.13
2022-10-19T14:09:15.217Z,55.79
2022-10-19T14:11:48.310Z,57.33
2022-10-19T14:14:20.831Z,55.41
2022-10-19T14:16:56.047Z,57.76
2022-10-19T14:19:32.305Z,56.66
2022-10-19T14:22:03.115Z,59.79
2022-10-19T14:24:36.983Z,57.93
2022-10-19T14:27:08.684Z,58.32
2022-10-19T14:29:47.487Z,59.99
2022-10-19T14:32:17.767Z,60.50
2022-10-19T14:34:49.311Z,62.12
2022-10-19T14:37:21.913Z,62.69
2022-10-19T14:40:05.802Z,63.50
2022-10-19T14:42:44.713Z,62.87
2022-10-19T14:45:18.641Z,65.29
2022-10-19T14:48:18.515Z,64.04
2022-10-19T14:50:52.931Z,63.70
2022-10-19T14:53:38.013Z,64.73
2022-10-19T14:56:14.927Z,64.75
2022-10-19T14:58:53.293Z,64.38
2022-10-19T15:01:23.028Z,59.99
2022-10-19T15:03:52.935Z,56.52
2022-10-19T15:06:27.696Z,56.39
2022-10-19T15:09:00.343Z,55.20
2022-10-19T15:11:33.955Z,56.03
2022-10-19T15:14:09.137Z,56.86
2022-10-19T15:16:51.885Z,58.81
2022-10-19T15:19:28.919Z,59.30
2022-10-19T15:22:19.625Z,58.05
2022-10-19T15:25:02.717Z,59.74
2022-10-19T15:27:36.728Z,59.35
2022-10-19T15:30:25.399Z,59.49
2022-10-19T15:33:11.461Z,58.19
2022-10-19T15:35:44.045Z,57.96
2022-10-19T15:38:24.317Z,57.63
2022-10-19T15:41:00.233Z,57.10
2022-10-19T15:43:53.392Z,58.67
2022-10-19T15:46:31.139Z,59.49
2022-10-19T15:49:05.475Z,59.31
2022-10-19T15:51:52.712Z,59.31
2022-10-19T15:54:21.649Z,57.62
2022-10-19T15:56:54.036Z,57.67
2022-10-19T15:59:24.293Z,58.54
2022-10-19T16:01:56.109Z,59.52
2022-10-19T16:04:25.119Z,60.60
2022-10-19T16:06:53.795Z,61.08
2022-10-19T16:09:23.091Z,60.78
2022-10-19T16:11:56.727Z,62.51
2022-10-19T16:14:28.402Z,63.92
2022-10-19T16:17:00.477Z,61.75
2022-10-19T16:19:29.226Z,61.28
2022-10-19T16:21:57.793Z,65.57
2022-10-19T16:24:26.502Z,62.96
2022-10-19T16:26:55.016Z,64.04
2022-10-19T16:29:28.156Z,63.62
2022-10-19T16:31:59.433Z,65.12
2022-10-19T16:34:28.679Z,64.48
2022-10-19T16:36:57.193Z,64.12
2022-10-19T16:39:26.059Z,65.47
2022-10-19T16:41:54.607Z,66.27
2022-10-19T16:44:23.348Z,64.22
2022-10-19T16:46:51.852Z,66.82
2022-10-19T16:49:21.933Z,64.96
2022-10-19T16:51:53.219Z,67.71
2022-10-19T16:54:26.954Z,64.78
2022-10-19T16:56:56.410Z,65.82
2022-10-19T16:59:25.195Z,65.49
2022-10-19T17:01:53.941Z,66.07
2022-10-19T17:04:25.756Z,67.53
2022-10-19T17:06:54.333Z,65.82
2022-10-19T17:12:14.348Z,67.06
2022-10-19T17:14:44.394Z,69.10
2022-10-19T17:17:13.211Z,69.84
2022-10-19T17:19:43.664Z,66.51
2022-10-19T17:22:12.355Z,69.96
2022-10-19T17:24:41.467Z,68.47
2022-10-19T17:27:10.186Z,65.74
2022-10-19T17:29:39.088Z,66.17
2022-10-19T17:32:08.191Z,67.25
2022-10-19T17:34:37.060Z,66.88
2022-10-19T17:37:07.200Z,67.01
2022-10-19T17:39:35.984Z,66.56
2022-10-19T17:42:04.979Z,65.67
2022-10-19T17:44:33.852Z,70.03
2022-10-19T17:47:02.677Z,68.80
2022-10-19T17:49:31.415Z,71.14
2022-10-19T17:52:00.054Z,66.80
2022-10-19T17:54:30.720Z,66.90
2022-10-19T17:57:00.562Z,68.41
2022-10-19T17:59:34.891Z,71.42
2022-10-19T18:02:11.073Z,69.42
2022-10-19T18:04:40.240Z,70.22
2022-10-19T18:07:08.790Z,71.25
2022-10-19T18:09:39.363Z,71.63
2022-10-19T18:12:13.226Z,72.11
2022-10-19T18:14:42.336Z,71.94
2022-10-19T18:17:10.949Z,75.09
2022-10-19T18:19:39.936Z,72.86
2022-10-19T18:22:08.748Z,74.46
2022-10-19T18:24:39.901Z,71.36
2022-10-19T18:27:08.506Z,72.84
2022-10-19T18:29:37.232Z,76.15
2022-10-19T18:34:40.772Z,70.01
2022-10-19T18:37:10.208Z,70.47
2022-10-19T18:39:40.703Z,70.48
2022-10-19T18:42:12.088Z,69.66
2022-10-19T18:44:40.811Z,70.17
2022-10-19T18:47:09.457Z,72.15
2022-10-19T18:49:38.186Z,72.96
2022-10-19T18:52:06.785Z,74.65
2022-10-19T18:54:35.686Z,74.51
2022-10-19T18:57:05.651Z,77.12
2022-10-19T18:59:34.570Z,76.20
2022-10-19T19:02:03.310Z,70.20
2022-10-19T19:04:32.064Z,73.34
2022-10-19T19:07:00.567Z,72.59
2022-10-19T19:09:29.316Z,75.72
2022-10-19T19:12:01.219Z,76.49
2022-10-19T19:14:31.446Z,75.85
2022-10-19T19:17:00.125Z,72.74
2022-10-19T19:19:29.880Z,73.64
2022-10-19T19:21:58.668Z,75.79
2022-10-19T19:24:31.529Z,79.05
2022-10-19T19:27:00.360Z,77.46
2022-10-19T19:29:31.447Z,77.38
2022-10-19T19:32:00.172Z,77.70
2022-10-19T19:34:28.983Z,78.82
2022-10-19T19:36:57.538Z,79.65
2022-10-19T19:39:26.263Z,78.49
2022-10-19T19:41:54.838Z,76.98
2022-10-19T19:44:25.039Z,76.70
2022-10-19T19:46:55.017Z,78.47
2022-10-19T19:49:25.046Z,80.31
2022-10-19T19:51:54.833Z,83.45
2022-10-19T19:54:24.627Z,84.74
2022-10-19T19:56:54.594Z,84.80
2022-10-19T19:59:23.381Z,88.18
2022-10-19T20:01:52.030Z,88.94
2022-10-19T20:04:22.307Z,88.30
2022-10-19T20:06:50.889Z,85.99
2022-10-19T20:09:19.676Z,88.01
2022-10-19T20:11:48.369Z,88.16
2022-10-19T20:14:18.788Z,84.67
2022-10-19T20:16:47.316Z,85.32
2022-10-19T20:19:16.082Z,85.62
2022-10-19T20:21:45.969Z,87.95
2022-10-19T20:24:14.759Z,89.51
2022-10-19T20:26:43.317Z,91.00
2022-10-19T20:29:12.075Z,93.21
2022-10-19T20:31:41.316Z,94.72
2022-10-19T20:34:14.040Z,96.17
2022-10-19T20:36:43.254Z,96.88
2022-10-19T20:39:13.515Z,97.02
2022-10-19T20:41:42.109Z,96.62
2022-10-19T20:44:10.883Z,96.90
2022-10-19T20:46:39.552Z,97.41
2022-10-19T20:49:08.368Z,97.13
2022-10-19T20:51:38.022Z,96.99
2022-10-19T20:54:12.166Z,96.75
2022-10-19T20:56:43.434Z,95.84
2022-10-19T20:59:15.261Z,95.75
2022-10-19T21:01:45.917Z,96.31
2022-10-19T21:04:16.299Z,94.37
2022-10-19T21:06:48.299Z,89.42
2022-10-19T21:09:20.545Z,91.36
2022-10-19T21:11:53.017Z,90.37
2022-10-19T21:14:27.219Z,90.71
2022-10-19T21:16:59.160Z,91.34
2022-10-19T21:19:30.896Z,92.58
2022-10-19T21:22:02.697Z,93.87
2022-10-19T21:24:34.579Z,93.98
2022-10-19T21:27:09.210Z,94.91
2022-10-19T21:29:38.918Z,95.09
2022-10-19T21:32:08.093Z,96.62
2022-10-19T21:34:37.001Z,96.77
2022-10-19T21:37:05.499Z,96.41
2022-10-19T21:39:34.220Z,96.41
2022-10-19T21:42:04.058Z,96.91
2022-10-19T21:44:32.750Z,94.05
2022-10-19T21:47:01.238Z,91.25
2022-10-19T21:49:29.940Z,87.57
2022-10-19T21:51:58.619Z,90.92
2022-10-19T21:54:27.669Z,91.33
2022-10-19T21:56:57.680Z,94.42
2022-10-19T21:59:27.899Z,97.60
2022-10-19T22:01:57.184Z,99.32
2022-10-19T22:04:25.950Z,99.54
2022-10-19T22:06:54.590Z,100.00
2022-10-19T22:09:24.011Z,100.00
2022-10-19T22:11:52.603Z,100.00
2022-10-19T22:14:21.450Z,100.00
2022-10-19T22:16:51.454Z,100.00
2022-10-19T22:19:20.322Z,100.00
2022-10-19T22:21:48.803Z,100.00
2022-10-19T22:24:17.513Z,98.86
2022-10-19T22:26:50.743Z,99.71
2022-10-19T22:29:20.132Z,99.69
2022-10-19T22:31:48.640Z,98.12
2022-10-19T22:34:19.792Z,95.66
2022-10-19T22:36:49.082Z,97.54
2022-10-19T22:39:18.093Z,97.98
2022-10-19T22:42:10.708Z,92.04
2022-10-19T22:44:39.627Z,88.48
2022-10-19T22:47:08.442Z,93.26
2022-10-19T22:49:38.857Z,91.62
2022-10-19T22:52:07.568Z,92.74
2022-10-19T22:54:36.463Z,95.21
2022-10-19T22:57:05.848Z,93.13
2022-10-19T22:59:34.997Z,96.08
2022-10-19T23:02:03.801Z,98.40
2022-10-19T23:04:33.098Z,100.00
2022-10-19T23:07:03.290Z,99.92
2022-10-19T23:09:32.327Z,98.75
2022-10-19T23:12:01.027Z,93.72
2022-10-19T23:14:29.939Z,92.88
2022-10-19T23:16:58.804Z,91.91
2022-10-19T23:19:27.723Z,88.87
2022-10-19T23:21:56.337Z,86.30
2022-10-19T23:24:26.639Z,85.95
2022-10-19T23:26:55.407Z,87.32
2022-10-19T23:29:24.687Z,87.25
2022-10-19T23:31:53.403Z,85.38
2022-10-19T23:34:22.381Z,88.01
2022-10-19T23:36:51.097Z,87.62
2022-10-19T23:39:20.157Z,86.53
2022-10-19T23:41:50.171Z,85.66
2022-10-19T23:44:18.899Z,88.76
2022-10-19T23:46:47.419Z,90.68
2022-10-19T23:49:16.237Z,88.92
2022-10-19T23:51:44.749Z,87.36
2022-10-19T23:54:13.453Z,89.82
2022-10-19T23:56:42.043Z,90.86
2022-10-19T23:59:12.127Z,92.89
